sensor_id;sensor_type;location;lat;lon;timestamp;pressure;altitude;pressure_sealevel;temperature;humidity
56420;BME280;42323;52.170;7.538;2023-06-14T00:01:29;63019.00;;;-145.28;100.00
56420;BME280;42323;52.170;7.538;2023-06-14T00:03:55;63019.00;;;-145.28;100.00
56420;BME280;42323;52.170;7.538;2023-06-14T00:06:22;63019.00;;;-145.28;100.00
56420;BME280;42323;52.170;7.538;2023-06-14T00:08:50;63019.00;;;-145.28;100.00
56420;BME280;42323;52.170;7.538;2023-06-14T00:11:17;63019.00;;;-145.28;100.00
56420;BME280;42323;52.170;7.538;2023-06-14T00:13:44;63019.00;;;-145.28;100.00
56420;BME280;42323;52.170;7.538;2023-06-14T00:16:10;63019.00;;;-145.28;100.00
56420;BME280;42323;52.170;7.538;2023-06-14T00:18:38;63019.00;;;-145.28;100.00
56420;BME280;42323;52.170;7.538;2023-06-14T00:21:05;63019.00;;;-145.28;100.00
56420;BME280;42323;52.170;7.538;2023-06-14T00:23:31;63019.00;;;-145.28;100.00
56420;BME280;42323;52.170;7.538;2023-06-14T00:25:58;63019.00;;;-145.28;100.00
56420;BME280;42323;52.170;7.538;2023-06-14T00:28:25;63019.00;;;-145.28;100.00
56420;BME280;42323;52.170;7.538;2023-06-14T00:30:51;63019.00;;;-145.28;100.00
56420;BME280;42323;52.170;7.538;2023-06-14T00:33:18;63019.00;;;-145.28;100.00
56420;BME280;42323;52.170;7.538;2023-06-14T00:35:44;63019.00;;;-145.28;100.00
56420;BME280;42323;52.170;7.538;2023-06-14T00:38:11;63019.00;;;-145.28;100.00
56420;BME280;42323;52.170;7.538;2023-06-14T00:40:37;63019.00;;;-145.28;100.00
56420;BME280;42323;52.170;7.538;2023-06-14T00:43:04;63019.00;;;-145.28;100.00
56420;BME280;42323;52.170;7.538;2023-06-14T00:45:30;63019.00;;;-145.28;100.00
56420;BME280;42323;52.170;7.538;2023-06-14T00:47:58;63019.00;;;-145.28;100.00
56420;BME280;42323;52.170;7.538;2023-06-14T00:50:25;63019.00;;;-145.28;100.00
56420;BME280;42323;52.170;7.538;2023-06-14T00:52:52;63019.00;;;-145.28;100.00
56420;BME280;42323;52.170;7.538;2023-06-14T00:55:19;63019.00;;;-145.28;100.00
56420;BME280;42323;52.170;7.538;2023-06-14T00:57:46;63019.00;;;-145.28;100.00
56420;BME280;42323;52.170;7.538;2023-06-14T01:00:13;63019.00;;;-145.28;100.00
56420;BME280;42323;52.170;7.538;2023-06-14T01:02:41;63019.00;;;-145.28;100.00
56420;BME280;42323;52.170;7.538;2023-06-14T01:05:09;63019.00;;;-145.28;100.00
56420;BME280;42323;52.170;7.538;2023-06-14T01:15:44;63019.00;;;-145.28;100.00
56420;BME280;42323;52.170;7.538;2023-06-14T01:18:11;63019.00;;;-145.28;100.00
56420;BME280;42323;52.170;7.538;2023-06-14T01:20:47;63019.00;;;-145.28;100.00
56420;BME280;42323;52.170;7.538;2023-06-14T01:23:17;63019.00;;;-145.28;100.00
56420;BME280;42323;52.170;7.538;2023-06-14T01:25:44;63019.00;;;-145.28;100.00
56420;BME280;42323;52.170;7.538;2023-06-14T01:28:11;63019.00;;;-145.28;100.00
56420;BME280;42323;52.170;7.538;2023-06-14T01:30:41;63019.00;;;-145.28;100.00
56420;BME280;42323;52.170;7.538;2023-06-14T01:33:17;63019.00;;;-145.28;100.00
56420;BME280;42323;52.170;7.538;2023-06-14T01:35:46;63019.00;;;-145.28;100.00
56420;BME280;42323;52.170;7.538;2023-06-14T01:38:14;63019.00;;;-145.28;100.00
56420;BME280;42323;52.170;7.538;2023-06-14T01:40:42;63019.00;;;-145.28;100.00
56420;BME280;42323;52.170;7.538;2023-06-14T01:43:10;63019.00;;;-145.28;100.00
56420;BME280;42323;52.170;7.538;2023-06-14T01:45:38;63019.00;;;-145.28;100.00
56420;BME280;42323;52.170;7.538;2023-06-14T01:48:07;63019.00;;;-145.28;100.00
56420;BME280;42323;52.170;7.538;2023-06-14T01:50:34;63019.00;;;-145.28;100.00
56420;BME280;42323;52.170;7.538;2023-06-14T01:53:01;63019.00;;;-145.28;100.00
56420;BME280;42323;52.170;7.538;2023-06-14T01:55:27;63019.00;;;-145.28;100.00
56420;BME280;42323;52.170;7.538;2023-06-14T01:57:54;63019.00;;;-145.28;100.00
56420;BME280;42323;52.170;7.538;2023-06-14T02:00:21;63019.00;;;-145.28;100.00
56420;BME280;42323;52.170;7.538;2023-06-14T02:02:47;63019.00;;;-145.28;100.00
56420;BME280;42323;52.170;7.538;2023-06-14T02:05:15;63019.00;;;-145.28;100.00
56420;BME280;42323;52.170;7.538;2023-06-14T02:07:45;63019.00;;;-145.28;100.00
56420;BME280;42323;52.170;7.538;2023-06-14T02:10:13;63019.00;;;-145.28;100.00
56420;BME280;42323;52.170;7.538;2023-06-14T02:12:41;63019.00;;;-145.28;100.00
56420;BME280;42323;52.170;7.538;2023-06-14T02:15:08;63019.00;;;-145.28;100.00
56420;BME280;42323;52.170;7.538;2023-06-14T02:17:34;63019.00;;;-145.28;100.00
56420;BME280;42323;52.170;7.538;2023-06-14T02:20:01;63019.00;;;-145.28;100.00
56420;BME280;42323;52.170;7.538;2023-06-14T02:22:31;63019.00;;;-145.28;100.00
56420;BME280;42323;52.170;7.538;2023-06-14T02:24:57;63019.00;;;-145.28;100.00
56420;BME280;42323;52.170;7.538;2023-06-14T02:27:28;63019.00;;;-145.28;100.00
56420;BME280;42323;52.170;7.538;2023-06-14T02:29:54;63019.00;;;-145.28;100.00
56420;BME280;42323;52.170;7.538;2023-06-14T02:32:21;63019.00;;;-145.28;100.00
56420;BME280;42323;52.170;7.538;2023-06-14T02:34:47;63019.00;;;-145.28;100.00
56420;BME280;42323;52.170;7.538;2023-06-14T02:37:16;63019.00;;;-145.28;100.00
56420;BME280;42323;52.170;7.538;2023-06-14T02:39:43;63019.00;;;-145.28;100.00
56420;BME280;42323;52.170;7.538;2023-06-14T02:42:09;63019.00;;;-145.28;100.00
56420;BME280;42323;52.170;7.538;2023-06-14T02:44:36;63019.00;;;-145.28;100.00
56420;BME280;42323;52.170;7.538;2023-06-14T02:47:04;63019.00;;;-145.28;100.00
56420;BME280;42323;52.170;7.538;2023-06-14T02:49:31;63019.00;;;-145.28;100.00
56420;BME280;42323;52.170;7.538;2023-06-14T02:51:57;63019.00;;;-145.28;100.00
56420;BME280;42323;52.170;7.538;2023-06-14T02:54:24;63019.00;;;-145.28;100.00
56420;BME280;42323;52.170;7.538;2023-06-14T02:56:51;63019.00;;;-145.28;100.00
56420;BME280;42323;52.170;7.538;2023-06-14T02:59:17;63019.00;;;-145.28;100.00
56420;BME280;42323;52.170;7.538;2023-06-14T03:01:44;63019.00;;;-145.28;100.00
56420;BME280;42323;52.170;7.538;2023-06-14T03:04:10;63019.00;;;-145.28;100.00
56420;BME280;42323;52.170;7.538;2023-06-14T03:06:37;63019.00;;;-145.28;100.00
56420;BME280;42323;52.170;7.538;2023-06-14T03:09:03;63019.00;;;-145.28;100.00
56420;BME280;42323;52.170;7.538;2023-06-14T03:11:35;63019.00;;;-145.28;100.00
56420;BME280;42323;52.170;7.538;2023-06-14T03:14:02;63019.00;;;-145.28;100.00
56420;BME280;42323;52.170;7.538;2023-06-14T03:16:33;63019.00;;;-145.28;100.00
56420;BME280;42323;52.170;7.538;2023-06-14T03:19:00;63019.00;;;-145.28;100.00
56420;BME280;42323;52.170;7.538;2023-06-14T03:21:27;63019.00;;;-145.28;100.00
56420;BME280;42323;52.170;7.538;2023-06-14T03:23:54;63019.00;;;-145.28;100.00
56420;BME280;42323;52.170;7.538;2023-06-14T03:26:21;63019.00;;;-145.28;100.00
56420;BME280;42323;52.170;7.538;2023-06-14T03:28:48;63019.00;;;-145.28;100.00
56420;BME280;42323;52.170;7.538;2023-06-14T03:31:16;63019.00;;;-145.28;100.00
56420;BME280;42323;52.170;7.538;2023-06-14T03:33:42;63019.00;;;-145.28;100.00
56420;BME280;42323;52.170;7.538;2023-06-14T03:36:09;63019.00;;;-145.28;100.00
56420;BME280;42323;52.170;7.538;2023-06-14T03:38:36;63019.00;;;-145.28;100.00
56420;BME280;42323;52.170;7.538;2023-06-14T03:41:02;63019.00;;;-145.28;100.00
56420;BME280;42323;52.170;7.538;2023-06-14T03:43:29;63019.00;;;-145.28;100.00
56420;BME280;42323;52.170;7.538;2023-06-14T03:45:56;63019.00;;;-145.28;100.00
56420;BME280;42323;52.170;7.538;2023-06-14T03:48:23;63019.00;;;-145.28;100.00
56420;BME280;42323;52.170;7.538;2023-06-14T03:50:50;63019.00;;;-145.28;100.00
56420;BME280;42323;52.170;7.538;2023-06-14T03:53:16;63019.00;;;-145.28;100.00
56420;BME280;42323;52.170;7.538;2023-06-14T03:55:43;63019.00;;;-145.28;100.00
56420;BME280;42323;52.170;7.538;2023-06-14T03:58:12;63019.00;;;-145.28;100.00
56420;BME280;42323;52.170;7.538;2023-06-14T04:00:39;63019.00;;;-145.28;100.00
56420;BME280;42323;52.170;7.538;2023-06-14T04:03:06;63019.00;;;-145.28;100.00
56420;BME280;42323;52.170;7.538;2023-06-14T04:05:33;63019.00;;;-145.28;100.00
56420;BME280;42323;52.170;7.538;2023-06-14T04:07:59;63019.00;;;-145.28;100.00
56420;BME280;42323;52.170;7.538;2023-06-14T04:10:27;63019.00;;;-145.28;100.00
56420;BME280;42323;52.170;7.538;2023-06-14T04:12:54;63019.00;;;-145.28;100.00
56420;BME280;42323;52.170;7.538;2023-06-14T04:15:20;63019.00;;;-145.28;100.00
56420;BME280;42323;52.170;7.538;2023-06-14T04:17:48;63019.00;;;-145.28;100.00
56420;BME280;42323;52.170;7.538;2023-06-14T04:20:14;63019.00;;;-145.28;100.00
56420;BME280;42323;52.170;7.538;2023-06-14T04:22:41;63019.00;;;-145.28;100.00
56420;BME280;42323;52.170;7.538;2023-06-14T04:25:09;63019.00;;;-145.28;100.00
56420;BME280;42323;52.170;7.538;2023-06-14T04:27:38;63019.00;;;-145.28;100.00
56420;BME280;42323;52.170;7.538;2023-06-14T04:30:06;63019.00;;;-145.28;100.00
56420;BME280;42323;52.170;7.538;2023-06-14T04:32:33;63019.00;;;-145.28;100.00
56420;BME280;42323;52.170;7.538;2023-06-14T04:35:08;63019.00;;;-145.28;100.00
56420;BME280;42323;52.170;7.538;2023-06-14T04:37:35;63019.00;;;-145.28;100.00
56420;BME280;42323;52.170;7.538;2023-06-14T04:40:07;63019.00;;;-145.28;100.00
56420;BME280;42323;52.170;7.538;2023-06-14T04:42:37;63019.00;;;-145.28;100.00
56420;BME280;42323;52.170;7.538;2023-06-14T04:45:04;63019.00;;;-145.28;100.00
56420;BME280;42323;52.170;7.538;2023-06-14T04:47:33;63019.00;;;-145.28;100.00
56420;BME280;42323;52.170;7.538;2023-06-14T04:50:00;63019.00;;;-145.28;100.00
56420;BME280;42323;52.170;7.538;2023-06-14T04:52:28;63019.00;;;-145.28;100.00
56420;BME280;42323;52.170;7.538;2023-06-14T04:54:56;63019.00;;;-145.28;100.00
56420;BME280;42323;52.170;7.538;2023-06-14T05:51:36;63019.00;;;-145.28;100.00
56420;BME280;42323;52.170;7.538;2023-06-14T06:00:14;63019.00;;;-145.28;100.00
56420;BME280;42323;52.170;7.538;2023-06-14T06:25:11;63019.00;;;-145.28;100.00
56420;BME280;42323;52.170;7.538;2023-06-14T08:01:30;101368.53;;;20.67;nan
56420;BME280;42323;52.170;7.538;2023-06-14T08:16:48;63019.00;;;-145.28;100.00
56420;BME280;42323;52.170;7.538;2023-06-14T08:27:42;101236.88;;;20.14;nan
56420;BME280;42323;52.170;7.538;2023-06-14T08:46:39;63019.00;;;-145.28;100.00
56420;BME280;42323;52.170;7.538;2023-06-14T08:49:47;63019.00;;;-145.28;100.00
56420;BME280;42323;52.170;7.538;2023-06-14T08:53:01;101291.41;;;21.14;nan
56420;BME280;42323;52.170;7.538;2023-06-14T08:55:32;101249.91;;;20.94;nan
56420;BME280;42323;52.170;7.538;2023-06-14T08:58:26;101315.69;;;21.47;nan
56420;BME280;42323;52.170;7.538;2023-06-14T09:04:53;101295.38;;;21.58;nan
56420;BME280;42323;52.170;7.538;2023-06-14T09:10:23;101295.38;;;21.58;nan
56420;BME280;42323;52.170;7.538;2023-06-14T09:29:24;101332.66;;;22.97;nan
56420;BME280;42323;52.170;7.538;2023-06-14T09:35:33;101279.38;;;23.08;nan
56420;BME280;42323;52.170;7.538;2023-06-14T09:38:39;101301.88;;;23.28;nan
56420;BME280;42323;52.170;7.538;2023-06-14T09:41:06;101382.97;;;23.80;nan
56420;BME280;42323;52.170;7.538;2023-06-14T09:43:33;101374.34;;;23.77;nan
56420;BME280;42323;52.170;7.538;2023-06-14T09:46:01;101374.81;;;23.91;nan
56420;BME280;42323;52.170;7.538;2023-06-14T09:48:27;101378.78;;;24.06;nan
56420;BME280;42323;52.170;7.538;2023-06-14T09:50:55;101377.66;;;24.23;nan
56420;BME280;42323;52.170;7.538;2023-06-14T09:53:25;101378.44;;;24.41;nan
56420;BME280;42323;52.170;7.538;2023-06-14T09:55:53;101387.56;;;24.67;nan
56420;BME280;42323;52.170;7.538;2023-06-14T09:58:23;101383.53;;;25.13;nan
56420;BME280;42323;52.170;7.538;2023-06-14T10:00:53;101378.88;;;25.36;nan
56420;BME280;42323;52.170;7.538;2023-06-14T10:03:25;101392.69;;;25.87;nan
56420;BME280;42323;52.170;7.538;2023-06-14T10:06:00;101367.88;;;26.17;nan
56420;BME280;42323;52.170;7.538;2023-06-14T10:08:31;101380.69;;;26.67;nan
56420;BME280;42323;52.170;7.538;2023-06-14T10:10:59;101375.34;;;26.98;nan
56420;BME280;42323;52.170;7.538;2023-06-14T10:13:28;101395.59;;;27.46;nan
56420;BME280;42323;52.170;7.538;2023-06-14T10:16:17;101385.31;;;27.99;nan
56420;BME280;42323;52.170;7.538;2023-06-14T10:21:55;101392.91;;;29.02;nan
56420;BME280;42323;52.170;7.538;2023-06-14T10:24:33;101390.25;;;29.65;nan
56420;BME280;42323;52.170;7.538;2023-06-14T10:27:00;101374.81;;;29.94;nan
56420;BME280;42323;52.170;7.538;2023-06-14T10:29:29;101380.41;;;30.46;nan
56420;BME280;42323;52.170;7.538;2023-06-14T10:32:00;101389.88;;;30.86;nan
56420;BME280;42323;52.170;7.538;2023-06-14T10:34:30;101390.91;;;31.23;nan
56420;BME280;42323;52.170;7.538;2023-06-14T10:37:10;101378.13;;;31.42;nan
56420;BME280;42323;52.170;7.538;2023-06-14T10:39:42;101369.53;;;31.68;nan
56420;BME280;42323;52.170;7.538;2023-06-14T10:42:14;101374.38;;;32.12;nan
56420;BME280;42323;52.170;7.538;2023-06-14T10:50:10;101377.25;;;32.30;nan
56420;BME280;42323;52.170;7.538;2023-06-14T10:52:39;101355.75;;;32.47;nan
56420;BME280;42323;52.170;7.538;2023-06-14T10:55:17;101361.97;;;32.84;nan
56420;BME280;42323;52.170;7.538;2023-06-14T10:57:54;101364.25;;;32.90;nan
56420;BME280;42323;52.170;7.538;2023-06-14T11:00:27;101353.59;;;32.94;nan
56420;BME280;42323;52.170;7.538;2023-06-14T11:05:57;101362.56;;;31.34;nan
56420;BME280;42323;52.170;7.538;2023-06-14T11:08:40;101363.44;;;32.04;nan
56420;BME280;42323;52.170;7.538;2023-06-14T11:11:12;101349.78;;;32.59;nan
56420;BME280;42323;52.170;7.538;2023-06-14T11:13:42;101357.66;;;33.05;nan
56420;BME280;42323;52.170;7.538;2023-06-14T11:16:17;101349.84;;;32.67;nan
56420;BME280;42323;52.170;7.538;2023-06-14T11:18:45;101356.50;;;32.97;nan
56420;BME280;42323;52.170;7.538;2023-06-14T11:21:16;101343.38;;;33.22;nan
56420;BME280;42323;52.170;7.538;2023-06-14T11:23:49;101362.56;;;33.48;nan
56420;BME280;42323;52.170;7.538;2023-06-14T11:26:24;101358.22;;;33.78;nan
56420;BME280;42323;52.170;7.538;2023-06-14T11:28:56;101353.19;;;34.03;nan
56420;BME280;42323;52.170;7.538;2023-06-14T11:31:24;101350.91;;;33.96;nan
56420;BME280;42323;52.170;7.538;2023-06-14T11:33:53;101349.91;;;33.92;nan
56420;BME280;42323;52.170;7.538;2023-06-14T11:36:19;101342.97;;;34.26;nan
56420;BME280;42323;52.170;7.538;2023-06-14T11:38:46;101332.72;;;34.31;nan
56420;BME280;42323;52.170;7.538;2023-06-14T11:41:16;101290.75;;;34.32;nan
56420;BME280;42323;52.170;7.538;2023-06-14T11:43:43;101283.56;;;34.54;nan
56420;BME280;42323;52.170;7.538;2023-06-14T11:46:15;101275.72;;;34.43;nan
56420;BME280;42323;52.170;7.538;2023-06-14T11:49:01;101290.78;;;34.58;nan
56420;BME280;42323;52.170;7.538;2023-06-14T11:51:35;101288.34;;;34.74;nan
56420;BME280;42323;52.170;7.538;2023-06-14T11:54:11;101334.41;;;35.23;nan
56420;BME280;42323;52.170;7.538;2023-06-14T11:56:38;101316.97;;;35.24;nan
56420;BME280;42323;52.170;7.538;2023-06-14T11:59:05;101342.16;;;35.59;nan
56420;BME280;42323;52.170;7.538;2023-06-14T12:01:34;101333.84;;;35.55;nan
56420;BME280;42323;52.170;7.538;2023-06-14T12:04:02;101328.00;;;35.65;nan
56420;BME280;42323;52.170;7.538;2023-06-14T12:06:30;101341.03;;;35.60;nan
56420;BME280;42323;52.170;7.538;2023-06-14T12:09:06;101341.09;;;35.42;nan
56420;BME280;42323;52.170;7.538;2023-06-14T12:11:39;101344.19;;;35.32;nan
56420;BME280;42323;52.170;7.538;2023-06-14T12:14:31;101335.97;;;35.50;nan
56420;BME280;42323;52.170;7.538;2023-06-14T12:17:16;101286.06;;;35.40;nan
56420;BME280;42323;52.170;7.538;2023-06-14T12:19:53;101317.03;;;35.74;nan
56420;BME280;42323;52.170;7.538;2023-06-14T12:22:20;101307.28;;;36.03;nan
56420;BME280;42323;52.170;7.538;2023-06-14T12:24:47;101328.34;;;36.35;nan
56420;BME280;42323;52.170;7.538;2023-06-14T12:27:14;101305.00;;;36.26;nan
56420;BME280;42323;52.170;7.538;2023-06-14T12:29:42;101331.91;;;36.36;nan
56420;BME280;42323;52.170;7.538;2023-06-14T12:32:12;101319.38;;;36.56;nan
56420;BME280;42323;52.170;7.538;2023-06-14T12:34:38;101336.25;;;36.58;nan
56420;BME280;42323;52.170;7.538;2023-06-14T12:37:05;101332.44;;;36.71;nan
56420;BME280;42323;52.170;7.538;2023-06-14T12:39:33;101322.28;;;36.92;nan
56420;BME280;42323;52.170;7.538;2023-06-14T12:41:59;101317.66;;;36.51;nan
56420;BME280;42323;52.170;7.538;2023-06-14T12:44:26;101331.91;;;36.57;nan
56420;BME280;42323;52.170;7.538;2023-06-14T12:46:52;101315.66;;;36.60;nan
56420;BME280;42323;52.170;7.538;2023-06-14T12:49:21;101330.44;;;36.59;nan
56420;BME280;42323;52.170;7.538;2023-06-14T12:51:47;101329.50;;;36.34;nan
56420;BME280;42323;52.170;7.538;2023-06-14T12:54:16;101337.75;;;36.26;nan
56420;BME280;42323;52.170;7.538;2023-06-14T12:56:53;101327.13;;;36.33;nan
56420;BME280;42323;52.170;7.538;2023-06-14T12:59:21;101326.31;;;35.82;nan
56420;BME280;42323;52.170;7.538;2023-06-14T13:01:48;101333.59;;;35.69;nan
56420;BME280;42323;52.170;7.538;2023-06-14T13:04:16;101325.59;;;36.23;nan
56420;BME280;42323;52.170;7.538;2023-06-14T13:06:45;101330.94;;;36.74;nan
56420;BME280;42323;52.170;7.538;2023-06-14T13:09:12;101280.31;;;36.88;nan
56420;BME280;42323;52.170;7.538;2023-06-14T13:11:55;101269.38;;;36.76;nan
56420;BME280;42323;52.170;7.538;2023-06-14T13:14:40;101274.59;;;36.69;nan
56420;BME280;42323;52.170;7.538;2023-06-14T13:17:17;101268.00;;;36.82;nan
56420;BME280;42323;52.170;7.538;2023-06-14T13:28:02;101263.06;;;37.33;nan
56420;BME280;42323;52.170;7.538;2023-06-14T13:30:41;101266.34;;;36.57;nan
56420;BME280;42323;52.170;7.538;2023-06-14T13:33:10;101285.41;;;37.11;nan
56420;BME280;42323;52.170;7.538;2023-06-14T13:35:44;101268.75;;;37.04;nan
56420;BME280;42323;52.170;7.538;2023-06-14T13:38:20;101279.03;;;37.19;nan
56420;BME280;42323;52.170;7.538;2023-06-14T13:41:19;101327.38;;;37.88;nan
56420;BME280;42323;52.170;7.538;2023-06-14T13:43:49;101293.94;;;37.95;nan
56420;BME280;42323;52.170;7.538;2023-06-14T13:46:54;101259.91;;;37.31;nan
56420;BME280;42323;52.170;7.538;2023-06-14T13:49:25;101276.84;;;37.37;nan
56420;BME280;42323;52.170;7.538;2023-06-14T13:51:54;101275.81;;;37.78;nan
56420;BME280;42323;52.170;7.538;2023-06-14T13:54:46;101302.00;;;38.04;nan
56420;BME280;42323;52.170;7.538;2023-06-14T13:57:29;101283.13;;;37.86;nan
56420;BME280;42323;52.170;7.538;2023-06-14T14:00:09;101261.91;;;37.83;nan
56420;BME280;42323;52.170;7.538;2023-06-14T14:02:42;101302.28;;;38.39;nan
56420;BME280;42323;52.170;7.538;2023-06-14T14:05:27;101242.09;;;38.43;nan
56420;BME280;42323;52.170;7.538;2023-06-14T14:08:16;101269.25;;;38.63;nan
56420;BME280;42323;52.170;7.538;2023-06-14T14:11:13;101288.03;;;38.77;nan
56420;BME280;42323;52.170;7.538;2023-06-14T14:14:02;101296.72;;;38.79;nan
56420;BME280;42323;52.170;7.538;2023-06-14T14:16:41;101246.47;;;38.75;nan
56420;BME280;42323;52.170;7.538;2023-06-14T14:19:26;101269.13;;;39.20;nan
56420;BME280;42323;52.170;7.538;2023-06-14T14:21:54;101251.09;;;39.34;nan
56420;BME280;42323;52.170;7.538;2023-06-14T14:24:31;101290.72;;;39.05;nan
56420;BME280;42323;52.170;7.538;2023-06-14T14:27:00;101223.19;;;38.25;nan
56420;BME280;42323;52.170;7.538;2023-06-14T14:29:53;101227.31;;;38.31;nan
56420;BME280;42323;52.170;7.538;2023-06-14T14:32:34;101266.72;;;38.43;nan
56420;BME280;42323;52.170;7.538;2023-06-14T14:35:38;101308.59;;;38.99;nan
56420;BME280;42323;52.170;7.538;2023-06-14T14:38:26;101228.25;;;38.67;nan
56420;BME280;42323;52.170;7.538;2023-06-14T14:41:13;101297.69;;;39.03;nan
56420;BME280;42323;52.170;7.538;2023-06-14T14:43:49;101224.03;;;38.85;nan
56420;BME280;42323;52.170;7.538;2023-06-14T14:46:16;101251.97;;;39.38;nan
56420;BME280;42323;52.170;7.538;2023-06-14T14:48:44;101256.91;;;38.85;nan
56420;BME280;42323;52.170;7.538;2023-06-14T14:51:21;101257.69;;;35.92;nan
56420;BME280;42323;52.170;7.538;2023-06-14T14:53:55;101271.66;;;36.20;nan
56420;BME280;42323;52.170;7.538;2023-06-14T14:59:25;101249.16;;;37.75;nan
56420;BME280;42323;52.170;7.538;2023-06-14T15:04:49;101258.78;;;35.19;nan
56420;BME280;42323;52.170;7.538;2023-06-14T15:07:19;101258.84;;;33.81;nan
56420;BME280;42323;52.170;7.538;2023-06-14T15:09:50;101233.00;;;32.50;nan
56420;BME280;42323;52.170;7.538;2023-06-14T15:12:18;101227.38;;;33.31;nan
56420;BME280;42323;52.170;7.538;2023-06-14T15:14:46;101229.03;;;33.01;nan
56420;BME280;42323;52.170;7.538;2023-06-14T15:17:13;101162.91;;;33.98;nan
56420;BME280;42323;52.170;7.538;2023-06-14T15:19:41;101203.47;;;33.59;nan
56420;BME280;42323;52.170;7.538;2023-06-14T15:22:11;101201.47;;;34.00;nan
56420;BME280;42323;52.170;7.538;2023-06-14T15:24:40;101228.72;;;34.99;nan
56420;BME280;42323;52.170;7.538;2023-06-14T15:27:22;101273.88;;;36.06;nan
56420;BME280;42323;52.170;7.538;2023-06-14T15:30:00;101256.41;;;36.85;nan
56420;BME280;42323;52.170;7.538;2023-06-14T15:32:33;101231.41;;;37.08;nan
56420;BME280;42323;52.170;7.538;2023-06-14T15:35:11;101267.63;;;37.29;nan
56420;BME280;42323;52.170;7.538;2023-06-14T15:37:48;101231.84;;;36.98;nan
56420;BME280;42323;52.170;7.538;2023-06-14T15:40:21;101248.03;;;37.27;nan
56420;BME280;42323;52.170;7.538;2023-06-14T15:42:48;101220.47;;;36.50;nan
56420;BME280;42323;52.170;7.538;2023-06-14T15:45:15;101278.94;;;35.86;nan
56420;BME280;42323;52.170;7.538;2023-06-14T15:47:44;101261.88;;;35.01;nan
56420;BME280;42323;52.170;7.538;2023-06-14T15:50:11;101225.72;;;35.21;nan
56420;BME280;42323;52.170;7.538;2023-06-14T15:52:38;101261.41;;;36.17;nan
56420;BME280;42323;52.170;7.538;2023-06-14T15:55:07;101271.97;;;37.06;nan
56420;BME280;42323;52.170;7.538;2023-06-14T15:57:34;101279.94;;;37.60;nan
56420;BME280;42323;52.170;7.538;2023-06-14T16:00:06;101248.50;;;37.54;nan
56420;BME280;42323;52.170;7.538;2023-06-14T16:02:35;101241.88;;;37.55;nan
56420;BME280;42323;52.170;7.538;2023-06-14T16:05:11;101224.34;;;37.44;nan
56420;BME280;42323;52.170;7.538;2023-06-14T16:07:41;101283.25;;;37.65;nan
56420;BME280;42323;52.170;7.538;2023-06-14T16:10:08;101277.53;;;37.71;nan
56420;BME280;42323;52.170;7.538;2023-06-14T16:12:35;101285.53;;;37.27;nan
56420;BME280;42323;52.170;7.538;2023-06-14T16:15:02;101233.69;;;37.06;nan
56420;BME280;42323;52.170;7.538;2023-06-14T16:17:34;101221.38;;;37.12;nan
56420;BME280;42323;52.170;7.538;2023-06-14T16:20:04;101227.75;;;37.16;nan
56420;BME280;42323;52.170;7.538;2023-06-14T16:22:34;101227.25;;;36.77;nan
56420;BME280;42323;52.170;7.538;2023-06-14T16:25:01;101238.06;;;36.86;nan
56420;BME280;42323;52.170;7.538;2023-06-14T16:27:30;101191.28;;;36.75;nan
56420;BME280;42323;52.170;7.538;2023-06-14T16:29:59;101230.38;;;37.25;nan
56420;BME280;42323;52.170;7.538;2023-06-14T16:32:27;101234.47;;;36.94;nan
56420;BME280;42323;52.170;7.538;2023-06-14T16:34:55;101192.94;;;36.22;nan
56420;BME280;42323;52.170;7.538;2023-06-14T16:37:27;101239.41;;;35.92;nan
56420;BME280;42323;52.170;7.538;2023-06-14T16:39:56;101200.19;;;36.18;nan
56420;BME280;42323;52.170;7.538;2023-06-14T16:42:23;101213.28;;;35.11;nan
56420;BME280;42323;52.170;7.538;2023-06-14T16:44:53;101300.72;;;35.95;nan
56420;BME280;42323;52.170;7.538;2023-06-14T16:47:36;101205.72;;;35.97;nan
56420;BME280;42323;52.170;7.538;2023-06-14T16:50:05;101209.94;;;36.40;nan
56420;BME280;42323;52.170;7.538;2023-06-14T16:52:32;101208.19;;;36.56;nan
56420;BME280;42323;52.170;7.538;2023-06-14T16:55:00;101234.75;;;36.68;nan
56420;BME280;42323;52.170;7.538;2023-06-14T16:57:35;101267.34;;;36.85;nan
56420;BME280;42323;52.170;7.538;2023-06-14T17:00:14;101212.84;;;36.23;nan
56420;BME280;42323;52.170;7.538;2023-06-14T17:02:57;101235.28;;;36.28;nan
56420;BME280;42323;52.170;7.538;2023-06-14T17:05:32;101237.63;;;35.97;nan
56420;BME280;42323;52.170;7.538;2023-06-14T17:08:05;101283.84;;;36.02;nan
56420;BME280;42323;52.170;7.538;2023-06-14T17:10:34;101253.03;;;35.92;nan
56420;BME280;42323;52.170;7.538;2023-06-14T17:13:01;101253.59;;;35.86;nan
56420;BME280;42323;52.170;7.538;2023-06-14T17:15:31;101307.50;;;35.89;nan
56420;BME280;42323;52.170;7.538;2023-06-14T17:18:01;101203.53;;;35.02;nan
56420;BME280;42323;52.170;7.538;2023-06-14T17:20:31;101302.34;;;35.28;nan
56420;BME280;42323;52.170;7.538;2023-06-14T17:22:58;101230.00;;;34.84;nan
56420;BME280;42323;52.170;7.538;2023-06-14T17:25:26;101257.34;;;35.13;nan
56420;BME280;42323;52.170;7.538;2023-06-14T17:27:55;101218.31;;;34.83;nan
56420;BME280;42323;52.170;7.538;2023-06-14T17:30:36;101252.25;;;35.03;nan
56420;BME280;42323;52.170;7.538;2023-06-14T17:33:15;101268.72;;;35.15;nan
56420;BME280;42323;52.170;7.538;2023-06-14T17:35:47;101241.75;;;34.67;nan
56420;BME280;42323;52.170;7.538;2023-06-14T17:38:16;101246.56;;;34.61;nan
56420;BME280;42323;52.170;7.538;2023-06-14T17:40:57;101265.63;;;34.61;nan
56420;BME280;42323;52.170;7.538;2023-06-14T17:43:37;101227.56;;;34.18;nan
56420;BME280;42323;52.170;7.538;2023-06-14T17:46:05;101247.22;;;34.32;nan
56420;BME280;42323;52.170;7.538;2023-06-14T17:48:43;101250.91;;;34.28;nan
56420;BME280;42323;52.170;7.538;2023-06-14T17:51:35;101287.28;;;34.49;nan